KFMH/FMH METAR and TAF weather

Enter ICAO airport designator
Station Type Date Time Source
KFMH METAR 2019/06/18 17:35 UTC NOAA

KFMH 181735Z 17008KT 10SM OVC041 19/17 A2998 RMK AO2


Station Type Date Time Source
KFMH Decoded METAR 2019/06/18 17:35 UTC NOAA

Otis Air National Guard Base, MA, United States (KFMH) 41-39N 070-31W
Jun 18, 2019 - 01:35 PM EDT / 2019.06.18 1735 UTC
Wind: from the S (170 degrees) at 9 MPH (8 KT):0
Visibility: 10 mile(s):0
Sky conditions: overcast
Temperature: 66 F (19 C)
Dew Point: 62 F (17 C)
Relative Humidity: 88%
Pressure (altimeter): 29.98 in. Hg (1015 hPa)
ob: KFMH 181735Z 17008KT 10SM OVC041 19/17 A2998 RMK AO2
cycle: 17

Station Type Date Time Source
KFMH TAF 2019/06/18 18:36 UTC NOAA

TAF KFMH 181732Z 1818/1918 18008KT P6SM -RA SCT007 OVC040
FM182300 14006KT 3SM BR VCSH OVC008
FM190500 10004KT 1SM -RA BR OVC003
FM190800 06004KT 1 1/2SM BR VCSH OVC003

Example: see airport list